Station Historical Data
Daily Summary for February 9, 2018 Units:  Both    English   Metric
« Previous Day
Next Day »
Daily Weekly Monthly Yearly Custom
  High: Low: Average:
Temperature: TemperatureF °F /  -17.8 °C 15.0 °F /  -9.4 °C 21 °F /  -6.1 °C
Dew Point: DewpointF °F /  -17.8 °C 9.1 °F /  -12.7 °C 16.6 °F /  -8.6 °C
Humidity: Humidity% 77% 83%
Wind Speed: WindSpeedMPHmph /  0km/h - 2.7mph /  4.3km/h
Wind Gust: WindSpeedGustMPHmph /  0km/h - -
Wind- - SSE
Pressure: PressureIn in /  0 hPa 30.17 in /  1021.6 hPa -
Precipitation: 0.00 in /  0 mm    
Historical Graphs
 
 
Tabular Data for February 9, 2018
Time Temperature Dew Point Pressure Wind Wind Speed Wind Gust Humidity Rainfall Rate (Hourly)
TemperatureF °F /  -17.8 °C DewpointF °F /  -17.8 °C PressureInin /  0hPa Calm     Humidity% HourlyPrecipInin /  0mm
00:04 15.6 °F /  -9.1 °C 11.4 °F /  -11.4 °C 30.48in /  1032.1hPa SW 5.0mph /  8km/h 11.0mph /  17.7km/h 83% 0.00in /  0mm
00:09 15.7 °F /  -9.1 °C 11.5 °F /  -11.4 °C 30.47in /  1031.7hPa SW 6.0mph /  9.7km/h 12.0mph /  19.3km/h 83% 0.00in /  0mm
00:14 15.6 °F /  -9.1 °C 11.4 °F /  -11.4 °C 30.47in /  1031.7hPa SW 6.0mph /  9.7km/h 14.0mph /  22.5km/h 83% 0.00in /  0mm
00:19 15.7 °F /  -9.1 °C 11.5 °F /  -11.4 °C 30.47in /  1031.7hPa WSW 8.0mph /  12.9km/h 11.0mph /  17.7km/h 83% 0.00in /  0mm
00:24 15.7 °F /  -9.1 °C 11.5 °F /  -11.4 °C 30.47in /  1031.7hPa SW 8.0mph /  12.9km/h 13.0mph /  20.9km/h 83% 0.00in /  0mm
00:29 15.7 °F /  -9.1 °C 11.5 °F /  -11.4 °C 30.47in /  1031.7hPa WSW 8.0mph /  12.9km/h 14.0mph /  22.5km/h 83% 0.00in /  0mm
00:34 15.8 °F /  -9 °C 11.6 °F /  -11.3 °C 30.48in /  1032.1hPa WSW 8.0mph /  12.9km/h 14.0mph /  22.5km/h 83% 0.00in /  0mm
00:39 15.7 °F /  -9.1 °C 11.7 °F /  -11.3 °C 30.48in /  1032.1hPa SW 7.0mph /  11.3km/h 14.0mph /  22.5km/h 84% 0.00in /  0mm
00:44 15.8 °F /  -9 °C 11.8 °F /  -11.2 °C 30.48in /  1032.1hPa SW 6.0mph /  9.7km/h 14.0mph /  22.5km/h 84% 0.00in /  0mm
00:49 15.9 °F /  -8.9 °C 11.7 °F /  -11.3 °C 30.47in /  1031.7hPa WSW 6.0mph /  9.7km/h 13.0mph /  20.9km/h 83% 0.00in /  0mm
00:54 15.9 °F /  -8.9 °C 11.7 °F /  -11.3 °C 30.47in /  1031.7hPa WSW 7.0mph /  11.3km/h 13.0mph /  20.9km/h 83% 0.00in /  0mm
00:59 15.9 °F /  -8.9 °C 11.7 °F /  -11.3 °C 30.47in /  1031.7hPa WSW 6.0mph /  9.7km/h 9.0mph /  14.5km/h 83% 0.00in /  0mm
01:04 15.9 °F /  -8.9 °C 11.7 °F /  -11.3 °C 30.47in /  1031.7hPa SW 5.0mph /  8km/h 12.0mph /  19.3km/h 83% 0.00in /  0mm
01:09 15.9 °F /  -8.9 °C 11.7 °F /  -11.3 °C 30.47in /  1031.7hPa South 7.0mph /  11.3km/h 11.0mph /  17.7km/h 83% 0.00in /  0mm
01:14 15.9 °F /  -8.9 °C 11.7 °F /  -11.3 °C 30.47in /  1031.7hPa SSW 8.0mph /  12.9km/h 12.0mph /  19.3km/h 83% 0.00in /  0mm
01:19 15.9 °F /  -8.9 °C 11.4 °F /  -11.4 °C 30.47in /  1031.7hPa WSW 5.0mph /  8km/h 12.0mph /  19.3km/h 82% 0.00in /  0mm
01:24 15.9 °F /  -8.9 °C 11.4 °F /  -11.4 °C 30.47in /  1031.7hPa West 7.0mph /  11.3km/h 10.0mph /  16.1km/h 82% 0.00in /  0mm
01:29 15.9 °F /  -8.9 °C 11.4 °F /  -11.4 °C 30.47in /  1031.7hPa SSW 10.0mph /  16.1km/h 11.0mph /  17.7km/h 82% 0.00in /  0mm
01:34 15.9 °F /  -8.9 °C 11.4 °F /  -11.4 °C 30.47in /  1031.7hPa SW 6.0mph /  9.7km/h 12.0mph /  19.3km/h 82% 0.00in /  0mm
01:39 16.0 °F /  -8.9 °C 11.5 °F /  -11.4 °C 30.47in /  1031.7hPa SW 7.0mph /  11.3km/h 13.0mph /  20.9km/h 82% 0.00in /  0mm
01:44 15.9 °F /  -8.9 °C 11.4 °F /  -11.4 °C 30.47in /  1031.7hPa SW 6.0mph /  9.7km/h 13.0mph /  20.9km/h 82% 0.00in /  0mm
01:49 15.9 °F /  -8.9 °C 11.4 °F /  -11.4 °C 30.46in /  1031.4hPa SW 5.0mph /  8km/h 13.0mph /  20.9km/h 82% 0.00in /  0mm
01:54 15.8 °F /  -9 °C 11.3 °F /  -11.5 °C 30.46in /  1031.4hPa WSW 5.0mph /  8km/h 13.0mph /  20.9km/h 82% 0.00in /  0mm
02:00 15.8 °F /  -9 °C 11.3 °F /  -11.5 °C 30.46in /  1031.4hPa WSW 5.0mph /  8km/h 12.0mph /  19.3km/h 82% 0.00in /  0mm
02:09 15.9 °F /  -8.9 °C 11.4 °F /  -11.4 °C 30.47in /  1031.7hPa WSW 3.0mph /  4.8km/h 10.0mph /  16.1km/h 82% 0.00in /  0mm
02:14 15.9 °F /  -8.9 °C 11.4 °F /  -11.4 °C 30.47in /  1031.7hPa SSW 4.0mph /  6.4km/h 11.0mph /  17.7km/h 82% 0.00in /  0mm
02:19 15.9 °F /  -8.9 °C 11.4 °F /  -11.4 °C 30.47in /  1031.7hPa SW 7.0mph /  11.3km/h 8.0mph /  12.9km/h 82% 0.00in /  0mm
02:24 16.0 °F /  -8.9 °C 11.2 °F /  -11.6 °C 30.47in /  1031.7hPa South 4.0mph /  6.4km/h 10.0mph /  16.1km/h 81% 0.00in /  0mm
02:29 16.0 °F /  -8.9 °C 11.2 °F /  -11.6 °C 30.48in /  1032.1hPa WSW 4.0mph /  6.4km/h 12.0mph /  19.3km/h 81% 0.00in /  0mm
02:34 15.9 °F /  -8.9 °C 11.1 °F /  -11.6 °C 30.47in /  1031.7hPa SW 5.0mph /  8km/h 13.0mph /  20.9km/h 81% 0.00in /  0mm
02:39 16.0 °F /  -8.9 °C 11.2 °F /  -11.6 °C 30.48in /  1032.1hPa SW 5.0mph /  8km/h 13.0mph /  20.9km/h 81% 0.00in /  0mm
02:44 16.0 °F /  -8.9 °C 11.2 °F /  -11.6 °C 30.48in /  1032.1hPa SW 5.0mph /  8km/h 13.0mph /  20.9km/h 81% 0.00in /  0mm
02:49 16.0 °F /  -8.9 °C 11.2 °F /  -11.6 °C 30.48in /  1032.1hPa SW 6.0mph /  9.7km/h 10.0mph /  16.1km/h 81% 0.00in /  0mm
02:54 16.0 °F /  -8.9 °C 11.2 °F /  -11.6 °C 30.48in /  1032.1hPa SW 6.0mph /  9.7km/h 13.0mph /  20.9km/h 81% 0.00in /  0mm
02:59 15.9 °F /  -8.9 °C 11.1 °F /  -11.6 °C 30.47in /  1031.7hPa SW 5.0mph /  8km/h 13.0mph /  20.9km/h 81% 0.00in /  0mm
03:04 15.9 °F /  -8.9 °C 11.1 °F /  -11.6 °C 30.47in /  1031.7hPa SW 6.0mph /  9.7km/h 11.0mph /  17.7km/h 81% 0.00in /  0mm
03:09 15.9 °F /  -8.9 °C 11.1 °F /  -11.6 °C 30.47in /  1031.7hPa WSW 5.0mph /  8km/h 11.0mph /  17.7km/h 81% 0.00in /  0mm
03:14 15.9 °F /  -8.9 °C 11.1 °F /  -11.6 °C 30.46in /  1031.4hPa SW 3.0mph /  4.8km/h 9.0mph /  14.5km/h 81% 0.00in /  0mm
03:19 15.9 °F /  -8.9 °C 10.8 °F /  -11.8 °C 30.47in /  1031.7hPa SW 6.0mph /  9.7km/h 7.0mph /  11.3km/h 80% 0.00in /  0mm
03:24 15.9 °F /  -8.9 °C 10.8 °F /  -11.8 °C 30.46in /  1031.4hPa SW 4.0mph /  6.4km/h 11.0mph /  17.7km/h 80% 0.00in /  0mm
03:29 15.9 °F /  -8.9 °C 10.8 °F /  -11.8 °C 30.46in /  1031.4hPa SW 2.0mph /  3.2km/h 9.0mph /  14.5km/h 80% 0.00in /  0mm
03:34 15.9 °F /  -8.9 °C 10.8 °F /  -11.8 °C 30.45in /  1031hPa SW 4.0mph /  6.4km/h 8.0mph /  12.9km/h 80% 0.00in /  0mm
03:39 15.9 °F /  -8.9 °C 10.8 °F /  -11.8 °C 30.45in /  1031hPa SSE 2.0mph /  3.2km/h 7.0mph /  11.3km/h 80% 0.00in /  0mm
03:44 15.8 °F /  -9 °C 10.7 °F /  -11.8 °C 30.46in /  1031.4hPa SSW 4.0mph /  6.4km/h 10.0mph /  16.1km/h 80% 0.00in /  0mm
03:54 15.9 °F /  -8.9 °C 10.8 °F /  -11.8 °C 30.47in /  1031.7hPa SW 5.0mph /  8km/h 10.0mph /  16.1km/h 80% 0.00in /  0mm
03:59 16.0 °F /  -8.9 °C 10.6 °F /  -11.9 °C 30.46in /  1031.4hPa SW 5.0mph /  8km/h 9.0mph /  14.5km/h 79% 0.00in /  0mm
04:04 15.9 °F /  -8.9 °C 10.5 °F /  -11.9 °C 30.46in /  1031.4hPa SW 6.0mph /  9.7km/h 10.0mph /  16.1km/h 79% 0.00in /  0mm
04:09 16.0 °F /  -8.9 °C 10.6 °F /  -11.9 °C 30.47in /  1031.7hPa SW 5.0mph /  8km/h 11.0mph /  17.7km/h 79% 0.00in /  0mm
04:14 16.0 °F /  -8.9 °C 10.6 °F /  -11.9 °C 30.48in /  1032.1hPa SW 5.0mph /  8km/h 12.0mph /  19.3km/h 79% 0.00in /  0mm
04:19 16.1 °F /  -8.8 °C 10.4 °F /  -12 °C 30.48in /  1032.1hPa SW 5.0mph /  8km/h 12.0mph /  19.3km/h 78% 0.00in /  0mm
04:24 16.1 °F /  -8.8 °C 10.4 °F /  -12 °C 30.48in /  1032.1hPa SW 5.0mph /  8km/h 11.0mph /  17.7km/h 78% 0.00in /  0mm
04:34 16.1 °F /  -8.8 °C 10.4 °F /  -12 °C 30.47in /  1031.7hPa SSE 3.0mph /  4.8km/h 8.0mph /  12.9km/h 78% 0.00in /  0mm
04:39 16.1 °F /  -8.8 °C 10.4 °F /  -12 °C 30.47in /  1031.7hPa WSW 1.0mph /  1.6km/h 6.0mph /  9.7km/h 78% 0.00in /  0mm
04:44 16.1 °F /  -8.8 °C 10.4 °F /  -12 °C 30.47in /  1031.7hPa SW 4.0mph /  6.4km/h 9.0mph /  14.5km/h 78% 0.00in /  0mm
04:49 16.1 °F /  -8.8 °C 10.4 °F /  -12 °C 30.47in /  1031.7hPa SW 3.0mph /  4.8km/h 7.0mph /  11.3km/h 78% 0.00in /  0mm
04:54 16.1 °F /  -8.8 °C 10.4 °F /  -12 °C 30.47in /  1031.7hPa SW 4.0mph /  6.4km/h 11.0mph /  17.7km/h 78% 0.00in /  0mm
04:59 16.1 °F /  -8.8 °C 10.2 °F /  -12.1 °C 30.46in /  1031.4hPa SW 4.0mph /  6.4km/h 11.0mph /  17.7km/h 77% 0.00in /  0mm
05:04 16.0 °F /  -8.9 °C 10.1 °F /  -12.2 °C 30.47in /  1031.7hPa SW 4.0mph /  6.4km/h 8.0mph /  12.9km/h 77% 0.00in /  0mm
05:09 16.0 °F /  -8.9 °C 10.3 °F /  -12.1 °C 30.47in /  1031.7hPa SW 3.0mph /  4.8km/h 8.0mph /  12.9km/h 78% 0.00in /  0mm
05:14 16.0 °F /  -8.9 °C 10.3 °F /  -12.1 °C 30.47in /  1031.7hPa SW 2.0mph /  3.2km/h 4.0mph /  6.4km/h 78% 0.00in /  0mm
05:19 16.0 °F /  -8.9 °C 10.3 °F /  -12.1 °C 30.47in /  1031.7hPa SW 3.0mph /  4.8km/h 7.0mph /  11.3km/h 78% 0.00in /  0mm
05:24 15.9 °F /  -8.9 °C 10.3 °F /  -12.1 °C 30.47in /  1031.7hPa SW 2.0mph /  3.2km/h 5.0mph /  8km/h 78% 0.00in /  0mm
05:29 15.8 °F /  -9 °C 9.9 °F /  -12.3 °C 30.47in /  1031.7hPa SW 4.0mph /  6.4km/h 6.0mph /  9.7km/h 77% 0.00in /  0mm
05:34 15.8 °F /  -9 °C 9.9 °F /  -12.3 °C 30.47in /  1031.7hPa SW 4.0mph /  6.4km/h 6.0mph /  9.7km/h 77% 0.00in /  0mm
05:39 15.8 °F /  -9 °C 9.9 °F /  -12.3 °C 30.48in /  1032.1hPa SW 5.0mph /  8km/h 7.0mph /  11.3km/h 77% 0.00in /  0mm
05:44 15.6 °F /  -9.1 °C 9.7 °F /  -12.4 °C 30.47in /  1031.7hPa Calm   5.0mph /  8km/h 77% 0.00in /  0mm
05:49 15.5 °F /  -9.2 °C 9.6 °F /  -12.4 °C 30.47in /  1031.7hPa SW 2.0mph /  3.2km/h 5.0mph /  8km/h 77% 0.00in /  0mm
05:54 15.5 °F /  -9.2 °C 9.6 °F /  -12.4 °C 30.47in /  1031.7hPa SW 2.0mph /  3.2km/h 5.0mph /  8km/h 77% 0.00in /  0mm
05:59 15.5 °F /  -9.2 °C 9.6 °F /  -12.4 °C 30.47in /  1031.7hPa SW 2.0mph /  3.2km/h 5.0mph /  8km/h 77% 0.00in /  0mm
06:04 15.5 °F /  -9.2 °C 9.6 °F /  -12.4 °C 30.47in /  1031.7hPa SW 2.0mph /  3.2km/h 4.0mph /  6.4km/h 77% 0.00in /  0mm
06:09 15.3 °F /  -9.3 °C 9.4 °F /  -12.6 °C 30.47in /  1031.7hPa SW 2.0mph /  3.2km/h 4.0mph /  6.4km/h 77% 0.00in /  0mm
06:14 15.2 °F /  -9.3 °C 9.3 °F /  -12.6 °C 30.47in /  1031.7hPa SW 2.0mph /  3.2km/h 4.0mph /  6.4km/h 77% 0.00in /  0mm
06:19 15.1 °F /  -9.4 °C 9.2 °F /  -12.7 °C 30.47in /  1031.7hPa SW 4.0mph /  6.4km/h 5.0mph /  8km/h 77% 0.00in /  0mm
06:24 15.0 °F /  -9.4 °C 9.1 °F /  -12.7 °C 30.47in /  1031.7hPa SW 2.0mph /  3.2km/h 4.0mph /  6.4km/h 77% 0.00in /  0mm
06:29 15.1 °F /  -9.4 °C 9.2 °F /  -12.7 °C 30.48in /  1032.1hPa SW 3.0mph /  4.8km/h 4.0mph /  6.4km/h 77% 0.00in /  0mm
06:34 15.1 °F /  -9.4 °C 9.5 °F /  -12.5 °C 30.48in /  1032.1hPa SW 2.0mph /  3.2km/h 4.0mph /  6.4km/h 78% 0.00in /  0mm
06:39 15.0 °F /  -9.4 °C 9.4 °F /  -12.6 °C 30.48in /  1032.1hPa Calm   3.0mph /  4.8km/h 78% 0.00in /  0mm
06:44 15.1 °F /  -9.4 °C 9.2 °F /  -12.7 °C 30.47in /  1031.7hPa SW 2.0mph /  3.2km/h 3.0mph /  4.8km/h 77% 0.00in /  0mm
06:49 15.1 °F /  -9.4 °C 9.2 °F /  -12.7 °C 30.47in /  1031.7hPa SSW 1.0mph /  1.6km/h 5.0mph /  8km/h 77% 0.00in /  0mm
06:54 15.1 °F /  -9.4 °C 9.2 °F /  -12.7 °C 30.47in /  1031.7hPa SSW 3.0mph /  4.8km/h 4.0mph /  6.4km/h 77% 0.00in /  0mm
06:59 15.2 °F /  -9.3 °C 9.6 °F /  -12.4 °C 30.47in /  1031.7hPa SSW 3.0mph /  4.8km/h 6.0mph /  9.7km/h 78% 0.00in /  0mm
07:04 15.3 °F /  -9.3 °C 9.4 °F /  -12.6 °C 30.47in /  1031.7hPa SSW 3.0mph /  4.8km/h 6.0mph /  9.7km/h 77% 0.00in /  0mm
07:09 15.4 °F /  -9.2 °C 9.5 °F /  -12.5 °C 30.47in /  1031.7hPa SSW 3.0mph /  4.8km/h 5.0mph /  8km/h 77% 0.00in /  0mm
07:14 15.5 °F /  -9.2 °C 9.6 °F /  -12.4 °C 30.47in /  1031.7hPa SSW 3.0mph /  4.8km/h 6.0mph /  9.7km/h 77% 0.00in /  0mm
07:19 15.5 °F /  -9.2 °C 9.6 °F /  -12.4 °C 30.47in /  1031.7hPa SSW 3.0mph /  4.8km/h 7.0mph /  11.3km/h 77% 0.00in /  0mm
07:24 15.6 °F /  -9.1 °C 9.7 °F /  -12.4 °C 30.47in /  1031.7hPa SSW 3.0mph /  4.8km/h 7.0mph /  11.3km/h 77% 0.00in /  0mm
07:29 15.5 °F /  -9.2 °C 9.6 °F /  -12.4 °C 30.47in /  1031.7hPa SSW 3.0mph /  4.8km/h 6.0mph /  9.7km/h 77% 0.00in /  0mm
07:34 15.6 °F /  -9.1 °C 9.7 °F /  -12.4 °C 30.47in /  1031.7hPa SSW 1.0mph /  1.6km/h 4.0mph /  6.4km/h 77% 0.00in /  0mm
07:39 15.6 °F /  -9.1 °C 9.7 °F /  -12.4 °C 30.47in /  1031.7hPa SSW 6.0mph /  9.7km/h 7.0mph /  11.3km/h 77% 0.00in /  0mm
07:44 15.7 °F /  -9.1 °C 9.8 °F /  -12.3 °C 30.47in /  1031.7hPa SSW 2.0mph /  3.2km/h 5.0mph /  8km/h 77% 0.00in /  0mm
07:49 15.8 °F /  -9 °C 9.9 °F /  -12.3 °C 30.47in /  1031.7hPa SSW 3.0mph /  4.8km/h 5.0mph /  8km/h 77% 0.00in /  0mm
07:54 15.8 °F /  -9 °C 9.9 °F /  -12.3 °C 30.47in /  1031.7hPa SSW 3.0mph /  4.8km/h 7.0mph /  11.3km/h 77% 0.00in /  0mm
07:59 15.9 °F /  -8.9 °C 10.0 °F /  -12.2 °C 30.48in /  1032.1hPa SSW 3.0mph /  4.8km/h 6.0mph /  9.7km/h 77% 0.00in /  0mm
08:04 16.1 °F /  -8.8 °C 10.4 °F /  -12 °C 30.48in /  1032.1hPa SSW 3.0mph /  4.8km/h 6.0mph /  9.7km/h 78% 0.00in /  0mm
08:09 16.1 °F /  -8.8 °C 10.4 °F /  -12 °C 30.48in /  1032.1hPa SSW 4.0mph /  6.4km/h 8.0mph /  12.9km/h 78% 0.00in /  0mm
08:14 16.1 °F /  -8.8 °C 10.7 °F /  -11.8 °C 30.48in /  1032.1hPa SSW 5.0mph /  8km/h 7.0mph /  11.3km/h 79% 0.00in /  0mm
08:19 16.1 °F /  -8.8 °C 10.7 °F /  -11.8 °C 30.48in /  1032.1hPa SW 3.0mph /  4.8km/h 7.0mph /  11.3km/h 79% 0.00in /  0mm
08:24 16.0 °F /  -8.9 °C 10.9 °F /  -11.7 °C 30.48in /  1032.1hPa SSW 4.0mph /  6.4km/h 7.0mph /  11.3km/h 80% 0.00in /  0mm
08:29 16.1 °F /  -8.8 °C 11.0 °F /  -11.7 °C 30.48in /  1032.1hPa SSW 3.0mph /  4.8km/h 6.0mph /  9.7km/h 80% 0.00in /  0mm
08:34 16.1 °F /  -8.8 °C 11.3 °F /  -11.5 °C 30.48in /  1032.1hPa SSW 4.0mph /  6.4km/h 6.0mph /  9.7km/h 81% 0.00in /  0mm
08:39 16.2 °F /  -8.8 °C 11.4 °F /  -11.4 °C 30.48in /  1032.1hPa SSW 4.0mph /  6.4km/h 7.0mph /  11.3km/h 81% 0.00in /  0mm
08:44 16.2 °F /  -8.8 °C 11.4 °F /  -11.4 °C 30.48in /  1032.1hPa South 3.0mph /  4.8km/h 7.0mph /  11.3km/h 81% 0.00in /  0mm
08:49 16.2 °F /  -8.8 °C 11.7 °F /  -11.3 °C 30.48in /  1032.1hPa South 4.0mph /  6.4km/h 6.0mph /  9.7km/h 82% 0.00in /  0mm
08:54 16.2 °F /  -8.8 °C 11.7 °F /  -11.3 °C 30.47in /  1031.7hPa South 5.0mph /  8km/h 6.0mph /  9.7km/h 82% 0.00in /  0mm
08:59 16.4 °F /  -8.7 °C 11.9 °F /  -11.2 °C 30.47in /  1031.7hPa SSW 2.0mph /  3.2km/h 7.0mph /  11.3km/h 82% 0.00in /  0mm
09:04 16.5 °F /  -8.6 °C 12.0 °F /  -11.1 °C 30.47in /  1031.7hPa South 5.0mph /  8km/h 7.0mph /  11.3km/h 82% 0.00in /  0mm
09:09 16.5 °F /  -8.6 °C 12.0 °F /  -11.1 °C 30.47in /  1031.7hPa SSW 4.0mph /  6.4km/h 7.0mph /  11.3km/h 82% 0.00in /  0mm
09:14 16.7 °F /  -8.5 °C 12.2 °F /  -11 °C 30.47in /  1031.7hPa South 4.0mph /  6.4km/h 9.0mph /  14.5km/h 82% 0.00in /  0mm
09:19 16.8 °F /  -8.4 °C 12.3 °F /  -10.9 °C 30.46in /  1031.4hPa South 4.0mph /  6.4km/h 7.0mph /  11.3km/h 82% 0.00in /  0mm
09:24 16.9 °F /  -8.4 °C 12.4 °F /  -10.9 °C 30.46in /  1031.4hPa South 4.0mph /  6.4km/h 7.0mph /  11.3km/h 82% 0.00in /  0mm
09:29 17.2 °F /  -8.2 °C 12.9 °F /  -10.6 °C 30.46in /  1031.4hPa SSW 4.0mph /  6.4km/h 7.0mph /  11.3km/h 83% 0.00in /  0mm
09:34 17.4 °F /  -8.1 °C 12.8 °F /  -10.7 °C 30.45in /  1031hPa South 2.0mph /  3.2km/h 6.0mph /  9.7km/h 82% 0.00in /  0mm
09:39 17.6 °F /  -8 °C 13.0 °F /  -10.6 °C 30.45in /  1031hPa South 3.0mph /  4.8km/h 6.0mph /  9.7km/h 82% 0.00in /  0mm
09:44 17.7 °F /  -7.9 °C 13.1 °F /  -10.5 °C 30.44in /  1030.7hPa SSW 3.0mph /  4.8km/h 6.0mph /  9.7km/h 82% 0.00in /  0mm
09:49 17.8 °F /  -7.9 °C 13.2 °F /  -10.4 °C 30.44in /  1030.7hPa South 4.0mph /  6.4km/h 8.0mph /  12.9km/h 82% 0.00in /  0mm
09:54 18.0 °F /  -7.8 °C 13.2 °F /  -10.4 °C 30.44in /  1030.7hPa South 5.0mph /  8km/h 7.0mph /  11.3km/h 81% 0.00in /  0mm
09:59 18.3 °F /  -7.6 °C 13.4 °F /  -10.3 °C 30.43in /  1030.4hPa South 4.0mph /  6.4km/h 5.0mph /  8km/h 81% 0.00in /  0mm
10:04 18.6 °F /  -7.4 °C 13.7 °F /  -10.2 °C 30.44in /  1030.7hPa South 3.0mph /  4.8km/h 6.0mph /  9.7km/h 81% 0.00in /  0mm
10:09 18.8 °F /  -7.3 °C 13.7 °F /  -10.2 °C 30.43in /  1030.4hPa South 2.0mph /  3.2km/h 5.0mph /  8km/h 80% 0.00in /  0mm
10:14 18.9 °F /  -7.3 °C 13.7 °F /  -10.2 °C 30.43in /  1030.4hPa South 3.0mph /  4.8km/h 5.0mph /  8km/h 80% 0.00in /  0mm
10:19 19.0 °F /  -7.2 °C 13.8 °F /  -10.1 °C 30.43in /  1030.4hPa SSE 3.0mph /  4.8km/h 9.0mph /  14.5km/h 80% 0.00in /  0mm
10:24 19.0 °F /  -7.2 °C 13.8 °F /  -10.1 °C 30.43in /  1030.4hPa SSE 4.0mph /  6.4km/h 9.0mph /  14.5km/h 80% 0.00in /  0mm
10:29 19.2 °F /  -7.1 °C 14.0 °F /  -10 °C 30.43in /  1030.4hPa South 3.0mph /  4.8km/h 6.0mph /  9.7km/h 80% 0.00in /  0mm
10:34 19.3 °F /  -7.1 °C 14.1 °F /  -9.9 °C 30.43in /  1030.4hPa South 2.0mph /  3.2km/h 4.0mph /  6.4km/h 80% 0.00in /  0mm
10:39 19.3 °F /  -7.1 °C 14.1 °F /  -9.9 °C 30.43in /  1030.4hPa SSE 2.0mph /  3.2km/h 6.0mph /  9.7km/h 80% 0.00in /  0mm
10:44 19.6 °F /  -6.9 °C 14.4 °F /  -9.8 °C 30.43in /  1030.4hPa SSE 3.0mph /  4.8km/h 6.0mph /  9.7km/h 80% 0.00in /  0mm
10:49 19.6 °F /  -6.9 °C 14.4 °F /  -9.8 °C 30.43in /  1030.4hPa SSE 2.0mph /  3.2km/h 4.0mph /  6.4km/h 80% 0.00in /  0mm
10:54 19.6 °F /  -6.9 °C 14.4 °F /  -9.8 °C 30.43in /  1030.4hPa SSE 2.0mph /  3.2km/h 6.0mph /  9.7km/h 80% 0.00in /  0mm
10:59 19.7 °F /  -6.8 °C 14.5 °F /  -9.7 °C 30.42in /  1030hPa Calm   5.0mph /  8km/h 80% 0.00in /  0mm
11:04 19.9 °F /  -6.7 °C 14.7 °F /  -9.6 °C 30.42in /  1030hPa SSE 3.0mph /  4.8km/h 5.0mph /  8km/h 80% 0.00in /  0mm
11:09 20.0 °F /  -6.7 °C 14.8 °F /  -9.6 °C 30.42in /  1030hPa SSE 4.0mph /  6.4km/h 6.0mph /  9.7km/h 80% 0.00in /  0mm
11:14 20.3 °F /  -6.5 °C 15.1 °F /  -9.4 °C 30.42in /  1030hPa SSE 2.0mph /  3.2km/h 4.0mph /  6.4km/h 80% 0.00in /  0mm
11:19 20.6 °F /  -6.3 °C 15.4 °F /  -9.2 °C 30.42in /  1030hPa SSE 2.0mph /  3.2km/h 5.0mph /  8km/h 80% 0.00in /  0mm
11:24 20.8 °F /  -6.2 °C 15.6 °F /  -9.1 °C 30.42in /  1030hPa SSE 2.0mph /  3.2km/h 5.0mph /  8km/h 80% 0.00in /  0mm
11:29 20.9 °F /  -6.2 °C 15.7 °F /  -9.1 °C 30.42in /  1030hPa SSE 3.0mph /  4.8km/h 6.0mph /  9.7km/h 80% 0.00in /  0mm
11:34 21.1 °F /  -6.1 °C 15.9 °F /  -8.9 °C 30.42in /  1030hPa South 3.0mph /  4.8km/h 6.0mph /  9.7km/h 80% 0.00in /  0mm
11:39 21.4 °F /  -5.9 °C 16.2 °F /  -8.8 °C 30.41in /  1029.7hPa South 3.0mph /  4.8km/h 6.0mph /  9.7km/h 80% 0.00in /  0mm
11:44 21.7 °F /  -5.7 °C 16.2 °F /  -8.8 °C 30.41in /  1029.7hPa South 2.0mph /  3.2km/h 4.0mph /  6.4km/h 79% 0.00in /  0mm
11:49 21.8 °F /  -5.7 °C 16.3 °F /  -8.7 °C 30.41in /  1029.7hPa South 2.0mph /  3.2km/h 4.0mph /  6.4km/h 79% 0.00in /  0mm
11:54 21.9 °F /  -5.6 °C 16.4 °F /  -8.7 °C 30.41in /  1029.7hPa South 1.0mph /  1.6km/h 3.0mph /  4.8km/h 79% 0.00in /  0mm
11:59 21.9 °F /  -5.6 °C 16.4 °F /  -8.7 °C 30.41in /  1029.7hPa South 3.0mph /  4.8km/h 4.0mph /  6.4km/h 79% 0.00in /  0mm
12:04 22.1 °F /  -5.5 °C 16.6 °F /  -8.6 °C 30.40in /  1029.3hPa South 1.0mph /  1.6km/h 4.0mph /  6.4km/h 79% 0.00in /  0mm
12:09 22.4 °F /  -5.3 °C 16.9 °F /  -8.4 °C 30.40in /  1029.3hPa South 2.0mph /  3.2km/h 4.0mph /  6.4km/h 79% 0.00in /  0mm
12:14 22.5 °F /  -5.3 °C 17.0 °F /  -8.3 °C 30.40in /  1029.3hPa South 2.0mph /  3.2km/h 4.0mph /  6.4km/h 79% 0.00in /  0mm
12:19 22.7 °F /  -5.2 °C 17.2 °F /  -8.2 °C 30.39in /  1029hPa South 2.0mph /  3.2km/h 4.0mph /  6.4km/h 79% 0.00in /  0mm
12:24 22.7 °F /  -5.2 °C 17.2 °F /  -8.2 °C 30.39in /  1029hPa South 2.0mph /  3.2km/h 4.0mph /  6.4km/h 79% 0.00in /  0mm
12:29 22.7 °F /  -5.2 °C 17.2 °F /  -8.2 °C 30.39in /  1029hPa South 2.0mph /  3.2km/h 5.0mph /  8km/h 79% 0.00in /  0mm
12:34 22.7 °F /  -5.2 °C 17.2 °F /  -8.2 °C 30.38in /  1028.7hPa South 2.0mph /  3.2km/h 5.0mph /  8km/h 79% 0.00in /  0mm
12:39 22.8 °F /  -5.1 °C 17.3 °F /  -8.2 °C 30.38in /  1028.7hPa South 2.0mph /  3.2km/h 5.0mph /  8km/h 79% 0.00in /  0mm
12:44 23.1 °F /  -4.9 °C 17.6 °F /  -8 °C 30.37in /  1028.3hPa South 1.0mph /  1.6km/h 4.0mph /  6.4km/h 79% 0.00in /  0mm
12:49 23.3 °F /  -4.8 °C 17.7 °F /  -7.9 °C 30.37in /  1028.3hPa South 2.0mph /  3.2km/h 5.0mph /  8km/h 79% 0.00in /  0mm
12:54 23.3 °F /  -4.8 °C 17.7 °F /  -7.9 °C 30.37in /  1028.3hPa South 2.0mph /  3.2km/h 5.0mph /  8km/h 79% 0.00in /  0mm
12:59 23.6 °F /  -4.7 °C 18.0 °F /  -7.8 °C 30.36in /  1028hPa South 2.0mph /  3.2km/h 4.0mph /  6.4km/h 79% 0.00in /  0mm
13:04 23.8 °F /  -4.6 °C 18.2 °F /  -7.7 °C 30.36in /  1028hPa South 2.0mph /  3.2km/h 2.0mph /  3.2km/h 79% 0.00in /  0mm
13:09 23.9 °F /  -4.5 °C 18.0 °F /  -7.8 °C 30.35in /  1027.7hPa South 3.0mph /  4.8km/h 4.0mph /  6.4km/h 78% 0.00in /  0mm
13:14 23.8 °F /  -4.6 °C 17.9 °F /  -7.8 °C 30.35in /  1027.7hPa Calm   5.0mph /  8km/h 78% 0.00in /  0mm
13:19 24.0 °F /  -4.4 °C 18.4 °F /  -7.6 °C 30.34in /  1027.3hPa Calm   3.0mph /  4.8km/h 79% 0.00in /  0mm
13:24 24.1 °F /  -4.4 °C 18.5 °F /  -7.5 °C 30.33in /  1027hPa South 1.0mph /  1.6km/h 3.0mph /  4.8km/h 79% 0.00in /  0mm
13:29 24.0 °F /  -4.4 °C 18.4 °F /  -7.6 °C 30.33in /  1027hPa South 1.0mph /  1.6km/h 4.0mph /  6.4km/h 79% 0.00in /  0mm
13:34 24.0 °F /  -4.4 °C 18.4 °F /  -7.6 °C 30.33in /  1027hPa SSE 2.0mph /  3.2km/h 4.0mph /  6.4km/h 79% 0.00in /  0mm
13:39 23.9 °F /  -4.5 °C 18.6 °F /  -7.4 °C 30.32in /  1026.6hPa SSE 2.0mph /  3.2km/h 4.0mph /  6.4km/h 80% 0.00in /  0mm
13:44 23.8 °F /  -4.6 °C 18.5 °F /  -7.5 °C 30.32in /  1026.6hPa SE 1.0mph /  1.6km/h 4.0mph /  6.4km/h 80% 0.00in /  0mm
13:49 24.0 °F /  -4.4 °C 19.0 °F /  -7.2 °C 30.32in /  1026.6hPa Calm   3.0mph /  4.8km/h 81% 0.00in /  0mm
13:54 24.2 °F /  -4.3 °C 19.2 °F /  -7.1 °C 30.32in /  1026.6hPa SE 1.0mph /  1.6km/h 3.0mph /  4.8km/h 81% 0.00in /  0mm
13:59 24.2 °F /  -4.3 °C 19.2 °F /  -7.1 °C 30.31in /  1026.3hPa SE 2.0mph /  3.2km/h 3.0mph /  4.8km/h 81% 0.00in /  0mm
14:04 24.3 °F /  -4.3 °C 19.3 °F /  -7.1 °C 30.31in /  1026.3hPa SE 2.0mph /  3.2km/h 4.0mph /  6.4km/h 81% 0.00in /  0mm
14:09 24.4 °F /  -4.2 °C 19.4 °F /  -7 °C 30.31in /  1026.3hPa SE 2.0mph /  3.2km/h 5.0mph /  8km/h 81% 0.00in /  0mm
14:14 24.6 °F /  -4.1 °C 19.6 °F /  -6.9 °C 30.31in /  1026.3hPa SE 2.0mph /  3.2km/h 4.0mph /  6.4km/h 81% 0.00in /  0mm
14:19 24.6 °F /  -4.1 °C 19.6 °F /  -6.9 °C 30.30in /  1026hPa East 2.0mph /  3.2km/h 8.0mph /  12.9km/h 81% 0.00in /  0mm
14:24 24.5 °F /  -4.2 °C 19.5 °F /  -6.9 °C 30.30in /  1026hPa ENE 3.0mph /  4.8km/h 7.0mph /  11.3km/h 81% 0.00in /  0mm
14:29 24.4 °F /  -4.2 °C 19.4 °F /  -7 °C 30.29in /  1025.6hPa ENE 4.0mph /  6.4km/h 8.0mph /  12.9km/h 81% 0.00in /  0mm
14:34 24.5 °F /  -4.2 °C 19.5 °F /  -6.9 °C 30.29in /  1025.6hPa ENE 4.0mph /  6.4km/h 8.0mph /  12.9km/h 81% 0.00in /  0mm
14:39 24.5 °F /  -4.2 °C 19.8 °F /  -6.8 °C 30.28in /  1025.3hPa ENE 3.0mph /  4.8km/h 8.0mph /  12.9km/h 82% 0.00in /  0mm
14:44 24.5 °F /  -4.2 °C 19.8 °F /  -6.8 °C 30.28in /  1025.3hPa NE 5.0mph /  8km/h 7.0mph /  11.3km/h 82% 0.00in /  0mm
14:49 24.6 °F /  -4.1 °C 19.9 °F /  -6.7 °C 30.28in /  1025.3hPa NE 6.0mph /  9.7km/h 6.0mph /  9.7km/h 82% 0.00in /  0mm
14:54 24.6 °F /  -4.1 °C 19.9 °F /  -6.7 °C 30.28in /  1025.3hPa NE 3.0mph /  4.8km/h 7.0mph /  11.3km/h 82% 0.00in /  0mm
14:59 24.5 °F /  -4.2 °C 19.8 °F /  -6.8 °C 30.27in /  1024.9hPa NE 2.0mph /  3.2km/h 6.0mph /  9.7km/h 82% 0.00in /  0mm
15:04 24.6 °F /  -4.1 °C 20.2 °F /  -6.6 °C 30.27in /  1024.9hPa NE 3.0mph /  4.8km/h 6.0mph /  9.7km/h 83% 0.00in /  0mm
15:09 24.8 °F /  -4 °C 20.4 °F /  -6.4 °C 30.26in /  1024.6hPa NE 3.0mph /  4.8km/h 7.0mph /  11.3km/h 83% 0.00in /  0mm
15:14 24.9 °F /  -3.9 °C 20.5 °F /  -6.4 °C 30.26in /  1024.6hPa NE 3.0mph /  4.8km/h 7.0mph /  11.3km/h 83% 0.00in /  0mm
15:19 25.0 °F /  -3.9 °C 20.6 °F /  -6.3 °C 30.25in /  1024.3hPa NE 4.0mph /  6.4km/h 7.0mph /  11.3km/h 83% 0.00in /  0mm
15:24 25.3 °F /  -3.7 °C 20.9 °F /  -6.2 °C 30.25in /  1024.3hPa NE 4.0mph /  6.4km/h 6.0mph /  9.7km/h 83% 0.00in /  0mm
15:29 25.5 °F /  -3.6 °C 21.1 °F /  -6.1 °C 30.25in /  1024.3hPa NE 2.0mph /  3.2km/h 4.0mph /  6.4km/h 83% 0.00in /  0mm
15:34 25.6 °F /  -3.6 °C 21.2 °F /  -6 °C 30.24in /  1023.9hPa NE 4.0mph /  6.4km/h 6.0mph /  9.7km/h 83% 0.00in /  0mm
15:39 25.4 °F /  -3.7 °C 21.0 °F /  -6.1 °C 30.24in /  1023.9hPa ENE 4.0mph /  6.4km/h 9.0mph /  14.5km/h 83% 0.00in /  0mm
15:44 25.5 °F /  -3.6 °C 21.1 °F /  -6.1 °C 30.24in /  1023.9hPa NE 4.0mph /  6.4km/h 9.0mph /  14.5km/h 83% 0.00in /  0mm
15:54 25.4 °F /  -3.7 °C 21.2 °F /  -6 °C 30.23in /  1023.6hPa East 6.0mph /  9.7km/h 7.0mph /  11.3km/h 84% 0.00in /  0mm
15:59 25.4 °F /  -3.7 °C 21.2 °F /  -6 °C 30.22in /  1023.2hPa ENE 5.0mph /  8km/h 5.0mph /  8km/h 84% 0.00in /  0mm
16:04 25.4 °F /  -3.7 °C 21.2 °F /  -6 °C 30.22in /  1023.2hPa ENE 3.0mph /  4.8km/h 6.0mph /  9.7km/h 84% 0.00in /  0mm
16:09 25.5 °F /  -3.6 °C 21.3 °F /  -5.9 °C 30.21in /  1022.9hPa East 3.0mph /  4.8km/h 8.0mph /  12.9km/h 84% 0.00in /  0mm
16:14 25.4 °F /  -3.7 °C 21.2 °F /  -6 °C 30.21in /  1022.9hPa ENE 4.0mph /  6.4km/h 8.0mph /  12.9km/h 84% 0.00in /  0mm
16:19 25.4 °F /  -3.7 °C 21.2 °F /  -6 °C 30.21in /  1022.9hPa ENE 2.0mph /  3.2km/h 8.0mph /  12.9km/h 84% 0.00in /  0mm
16:29 25.5 °F /  -3.6 °C 21.6 °F /  -5.8 °C 30.21in /  1022.9hPa ENE 3.0mph /  4.8km/h 7.0mph /  11.3km/h 85% 0.00in /  0mm
16:34 25.5 °F /  -3.6 °C 21.6 °F /  -5.8 °C 30.21in /  1022.9hPa ENE 1.0mph /  1.6km/h 8.0mph /  12.9km/h 85% 0.00in /  0mm
16:39 25.5 °F /  -3.6 °C 21.6 °F /  -5.8 °C 30.21in /  1022.9hPa ENE 3.0mph /  4.8km/h 8.0mph /  12.9km/h 85% 0.00in /  0mm
16:44 25.6 °F /  -3.6 °C 21.7 °F /  -5.7 °C 30.21in /  1022.9hPa ENE 3.0mph /  4.8km/h 7.0mph /  11.3km/h 85% 0.00in /  0mm
16:49 25.7 °F /  -3.5 °C 21.8 °F /  -5.7 °C 30.21in /  1022.9hPa NE 3.0mph /  4.8km/h 5.0mph /  8km/h 85% 0.00in /  0mm
16:54 25.7 °F /  -3.5 °C 22.1 °F /  -5.5 °C 30.20in /  1022.6hPa NE 4.0mph /  6.4km/h 6.0mph /  9.7km/h 86% 0.00in /  0mm
16:59 25.6 °F /  -3.6 °C 22.0 °F /  -5.6 °C 30.20in /  1022.6hPa NE 4.0mph /  6.4km/h 6.0mph /  9.7km/h 86% 0.00in /  0mm
17:04 25.5 °F /  -3.6 °C 21.9 °F /  -5.6 °C 30.20in /  1022.6hPa NE 3.0mph /  4.8km/h 6.0mph /  9.7km/h 86% 0.00in /  0mm
17:09 25.4 °F /  -3.7 °C 21.8 °F /  -5.7 °C 30.20in /  1022.6hPa NE 3.0mph /  4.8km/h 5.0mph /  8km/h 86% 0.00in /  0mm
17:14 25.4 °F /  -3.7 °C 21.8 °F /  -5.7 °C 30.20in /  1022.6hPa NE 3.0mph /  4.8km/h 7.0mph /  11.3km/h 86% 0.00in /  0mm
17:19 25.3 °F /  -3.7 °C 21.7 °F /  -5.7 °C 30.21in /  1022.9hPa NE 4.0mph /  6.4km/h 9.0mph /  14.5km/h 86% 0.00in /  0mm
17:24 25.2 °F /  -3.8 °C 21.6 °F /  -5.8 °C 30.21in /  1022.9hPa NE 4.0mph /  6.4km/h 9.0mph /  14.5km/h 86% 0.00in /  0mm
17:29 25.2 °F /  -3.8 °C 21.6 °F /  -5.8 °C 30.21in /  1022.9hPa NE 3.0mph /  4.8km/h 5.0mph /  8km/h 86% 0.00in /  0mm
17:34 25.2 °F /  -3.8 °C 21.6 °F /  -5.8 °C 30.21in /  1022.9hPa ENE 3.0mph /  4.8km/h 5.0mph /  8km/h 86% 0.00in /  0mm
17:39 25.2 °F /  -3.8 °C 21.9 °F /  -5.6 °C 30.20in /  1022.6hPa NE 1.0mph /  1.6km/h 4.0mph /  6.4km/h 87% 0.00in /  0mm
17:44 25.1 °F /  -3.8 °C 21.8 °F /  -5.7 °C 30.20in /  1022.6hPa NE 2.0mph /  3.2km/h 5.0mph /  8km/h 87% 0.00in /  0mm
17:49 25.0 °F /  -3.9 °C 21.7 °F /  -5.7 °C 30.20in /  1022.6hPa NE 4.0mph /  6.4km/h 5.0mph /  8km/h 87% 0.00in /  0mm
17:54 25.0 °F /  -3.9 °C 21.7 °F /  -5.7 °C 30.20in /  1022.6hPa NE 4.0mph /  6.4km/h 4.0mph /  6.4km/h 87% 0.00in /  0mm
17:59 25.0 °F /  -3.9 °C 21.7 °F /  -5.7 °C 30.20in /  1022.6hPa NE 2.0mph /  3.2km/h 5.0mph /  8km/h 87% 0.00in /  0mm
18:04 24.9 °F /  -3.9 °C 21.6 °F /  -5.8 °C 30.19in /  1022.2hPa NE 3.0mph /  4.8km/h 5.0mph /  8km/h 87% 0.00in /  0mm
18:09 24.9 °F /  -3.9 °C 21.6 °F /  -5.8 °C 30.19in /  1022.2hPa NE 5.0mph /  8km/h 7.0mph /  11.3km/h 87% 0.00in /  0mm
18:14 24.9 °F /  -3.9 °C 21.6 °F /  -5.8 °C 30.20in /  1022.6hPa NE 3.0mph /  4.8km/h 5.0mph /  8km/h 87% 0.00in /  0mm
18:19 25.0 °F /  -3.9 °C 21.7 °F /  -5.7 °C 30.20in /  1022.6hPa NE 2.0mph /  3.2km/h 5.0mph /  8km/h 87% 0.00in /  0mm
18:24 25.0 °F /  -3.9 °C 21.7 °F /  -5.7 °C 30.20in /  1022.6hPa NE 2.0mph /  3.2km/h 5.0mph /  8km/h 87% 0.00in /  0mm
18:29 25.0 °F /  -3.9 °C 21.7 °F /  -5.7 °C 30.20in /  1022.6hPa NE 2.0mph /  3.2km/h 4.0mph /  6.4km/h 87% 0.00in /  0mm
18:34 25.0 °F /  -3.9 °C 21.9 °F /  -5.6 °C 30.19in /  1022.2hPa NE 1.0mph /  1.6km/h 4.0mph /  6.4km/h 88% 0.00in /  0mm
18:39 25.1 °F /  -3.8 °C 22.0 °F /  -5.6 °C 30.19in /  1022.2hPa NE 1.0mph /  1.6km/h 3.0mph /  4.8km/h 88% 0.00in /  0mm
18:44 25.2 °F /  -3.8 °C 22.1 °F /  -5.5 °C 30.19in /  1022.2hPa NE 1.0mph /  1.6km/h 5.0mph /  8km/h 88% 0.00in /  0mm
18:49 25.2 °F /  -3.8 °C 22.1 °F /  -5.5 °C 30.19in /  1022.2hPa NE 3.0mph /  4.8km/h 4.0mph /  6.4km/h 88% 0.00in /  0mm
18:54 25.2 °F /  -3.8 °C 22.1 °F /  -5.5 °C 30.19in /  1022.2hPa NE 1.0mph /  1.6km/h 4.0mph /  6.4km/h 88% 0.00in /  0mm
18:59 25.2 °F /  -3.8 °C 22.1 °F /  -5.5 °C 30.19in /  1022.2hPa NE 2.0mph /  3.2km/h 5.0mph /  8km/h 88% 0.00in /  0mm
19:04 25.3 °F /  -3.7 °C 22.2 °F /  -5.4 °C 30.19in /  1022.2hPa NE 1.0mph /  1.6km/h 3.0mph /  4.8km/h 88% 0.00in /  0mm
19:09 25.3 °F /  -3.7 °C 22.2 °F /  -5.4 °C 30.20in /  1022.6hPa NE 2.0mph /  3.2km/h 4.0mph /  6.4km/h 88% 0.00in /  0mm
19:14 25.4 °F /  -3.7 °C 22.3 °F /  -5.4 °C 30.19in /  1022.2hPa Calm   3.0mph /  4.8km/h 88% 0.00in /  0mm
19:19 25.4 °F /  -3.7 °C 22.3 °F /  -5.4 °C 30.19in /  1022.2hPa NE 2.0mph /  3.2km/h 3.0mph /  4.8km/h 88% 0.00in /  0mm
19:24 25.4 °F /  -3.7 °C 22.3 °F /  -5.4 °C 30.19in /  1022.2hPa NE 2.0mph /  3.2km/h 3.0mph /  4.8km/h 88% 0.00in /  0mm
19:29 25.6 °F /  -3.6 °C 22.8 °F /  -5.1 °C 30.19in /  1022.2hPa NE 1.0mph /  1.6km/h 3.0mph /  4.8km/h 89% 0.00in /  0mm
19:34 25.6 °F /  -3.6 °C 22.8 °F /  -5.1 °C 30.19in /  1022.2hPa NE 1.0mph /  1.6km/h 2.0mph /  3.2km/h 89% 0.00in /  0mm
19:39 25.8 °F /  -3.4 °C 23.0 °F /  -5 °C 30.19in /  1022.2hPa Calm   2.0mph /  3.2km/h 89% 0.00in /  0mm
19:44 25.9 °F /  -3.4 °C 23.1 °F /  -4.9 °C 30.19in /  1022.2hPa Calm   3.0mph /  4.8km/h 89% 0.00in /  0mm
19:49 25.9 °F /  -3.4 °C 23.1 °F /  -4.9 °C 30.19in /  1022.2hPa Calm   2.0mph /  3.2km/h 89% 0.00in /  0mm
19:54 25.9 °F /  -3.4 °C 23.1 °F /  -4.9 °C 30.19in /  1022.2hPa Calm     89% 0.00in /  0mm
19:59 26.0 °F /  -3.3 °C 23.2 °F /  -4.9 °C 30.19in /  1022.2hPa Calm     89% 0.00in /  0mm
20:04 26.1 °F /  -3.3 °C 23.3 °F /  -4.8 °C 30.19in /  1022.2hPa Calm     89% 0.00in /  0mm
20:09 26.2 °F /  -3.2 °C 23.4 °F /  -4.8 °C 30.19in /  1022.2hPa Calm     89% 0.00in /  0mm
20:14 26.3 °F /  -3.2 °C 23.5 °F /  -4.7 °C 30.19in /  1022.2hPa Calm     89% 0.00in /  0mm
20:19 26.4 °F /  -3.1 °C 23.6 °F /  -4.7 °C 30.18in /  1021.9hPa Calm     89% 0.00in /  0mm
20:24 26.5 °F /  -3.1 °C 23.7 °F /  -4.6 °C 30.18in /  1021.9hPa Calm   3.0mph /  4.8km/h 89% 0.00in /  0mm
20:29 26.5 °F /  -3.1 °C 23.7 °F /  -4.6 °C 30.18in /  1021.9hPa Calm     89% 0.00in /  0mm
20:34 26.5 °F /  -3.1 °C 23.7 °F /  -4.6 °C 30.18in /  1021.9hPa Calm     89% 0.00in /  0mm
20:39 26.6 °F /  -3 °C 23.8 °F /  -4.6 °C 30.18in /  1021.9hPa Calm     89% 0.00in /  0mm
20:44 26.7 °F /  -2.9 °C 23.9 °F /  -4.5 °C 30.17in /  1021.6hPa Calm     89% 0.00in /  0mm
20:49 26.7 °F /  -2.9 °C 23.9 °F /  -4.5 °C 30.17in /  1021.6hPa Calm     89% 0.00in /  0mm
20:54 26.8 °F /  -2.9 °C 24.0 °F /  -4.4 °C 30.17in /  1021.6hPa NE 1.0mph /  1.6km/h 3.0mph /  4.8km/h 89% 0.00in /  0mm
20:59 26.9 °F /  -2.8 °C 24.1 °F /  -4.4 °C 30.17in /  1021.6hPa Calm   2.0mph /  3.2km/h 89% 0.00in /  0mm
21:04 26.9 °F /  -2.8 °C 24.1 °F /  -4.4 °C 30.17in /  1021.6hPa Calm   2.0mph /  3.2km/h 89% 0.00in /  0mm
21:09 27.0 °F /  -2.8 °C 24.2 °F /  -4.3 °C 30.17in /  1021.6hPa Calm   1.0mph /  1.6km/h 89% 0.00in /  0mm
21:14 27.0 °F /  -2.8 °C 24.2 °F /  -4.3 °C 30.17in /  1021.6hPa Calm     89% 0.00in /  0mm
21:19 27.0 °F /  -2.8 °C 24.2 °F /  -4.3 °C 30.18in /  1021.9hPa NE 2.0mph /  3.2km/h 3.0mph /  4.8km/h 89% 0.00in /  0mm
21:24 26.9 °F /  -2.8 °C 24.1 °F /  -4.4 °C 30.18in /  1021.9hPa Calm   2.0mph /  3.2km/h 89% 0.00in /  0mm
21:29 26.9 °F /  -2.8 °C 24.1 °F /  -4.4 °C 30.18in /  1021.9hPa Calm   1.0mph /  1.6km/h 89% 0.00in /  0mm
21:34 27.0 °F /  -2.8 °C 24.2 °F /  -4.3 °C 30.18in /  1021.9hPa Calm   1.0mph /  1.6km/h 89% 0.00in /  0mm
21:39 27.0 °F /  -2.8 °C 24.2 °F /  -4.3 °C 30.18in /  1021.9hPa Calm   1.0mph /  1.6km/h 89% 0.00in /  0mm
21:44 26.9 °F /  -2.8 °C 24.1 °F /  -4.4 °C 30.18in /  1021.9hPa Calm   2.0mph /  3.2km/h 89% 0.00in /  0mm
21:49 27.0 °F /  -2.8 °C 24.5 °F /  -4.2 °C 30.18in /  1021.9hPa Calm   2.0mph /  3.2km/h 90% 0.00in /  0mm
21:54 27.0 °F /  -2.8 °C 24.5 °F /  -4.2 °C 30.18in /  1021.9hPa Calm     90% 0.00in /  0mm
21:59 27.1 °F /  -2.7 °C 24.6 °F /  -4.1 °C 30.18in /  1021.9hPa Calm     90% 0.00in /  0mm
22:04 27.1 °F /  -2.7 °C 24.6 °F /  -4.1 °C 30.18in /  1021.9hPa Calm     90% 0.00in /  0mm
22:09 27.1 °F /  -2.7 °C 24.6 °F /  -4.1 °C 30.18in /  1021.9hPa Calm     90% 0.00in /  0mm
22:14 27.2 °F /  -2.7 °C 24.7 °F /  -4.1 °C 30.18in /  1021.9hPa Calm     90% 0.00in /  0mm
22:19 27.2 °F /  -2.7 °C 24.7 °F /  -4.1 °C 30.18in /  1021.9hPa Calm     90% 0.00in /  0mm
22:24 27.2 °F /  -2.7 °C 24.7 °F /  -4.1 °C 30.18in /  1021.9hPa Calm     90% 0.00in /  0mm
22:29 27.2 °F /  -2.7 °C 24.7 °F /  -4.1 °C 30.18in /  1021.9hPa Calm     90% 0.00in /  0mm
22:34 27.2 °F /  -2.7 °C 24.7 °F /  -4.1 °C 30.18in /  1021.9hPa Calm     90% 0.00in /  0mm
22:39 27.3 °F /  -2.6 °C 24.8 °F /  -4 °C 30.17in /  1021.6hPa Calm     90% 0.00in /  0mm
22:44 27.3 °F /  -2.6 °C 24.8 °F /  -4 °C 30.17in /  1021.6hPa Calm     90% 0.00in /  0mm
22:49 27.2 °F /  -2.7 °C 24.7 °F /  -4.1 °C 30.18in /  1021.9hPa Calm     90% 0.00in /  0mm
22:54 27.2 °F /  -2.7 °C 24.7 °F /  -4.1 °C 30.17in /  1021.6hPa Calm     90% 0.00in /  0mm
22:59 27.2 °F /  -2.7 °C 24.7 °F /  -4.1 °C 30.18in /  1021.9hPa Calm     90% 0.00in /  0mm
23:04 27.4 °F /  -2.6 °C 24.9 °F /  -3.9 °C 30.18in /  1021.9hPa Calm     90% 0.00in /  0mm
23:09 27.5 °F /  -2.5 °C 25.0 °F /  -3.9 °C 30.18in /  1021.9hPa Calm     90% 0.00in /  0mm
23:14 27.5 °F /  -2.5 °C 25.0 °F /  -3.9 °C 30.18in /  1021.9hPa Calm     90% 0.00in /  0mm
23:19 27.4 °F /  -2.6 °C 24.9 °F /  -3.9 °C 30.18in /  1021.9hPa Calm     90% 0.00in /  0mm
23:24 27.4 °F /  -2.6 °C 24.9 °F /  -3.9 °C 30.18in /  1021.9hPa Calm     90% 0.00in /  0mm
23:29 27.5 °F /  -2.5 °C 25.0 °F /  -3.9 °C 30.18in /  1021.9hPa Calm     90% 0.00in /  0mm
23:34 27.4 °F /  -2.6 °C 24.9 °F /  -3.9 °C 30.17in /  1021.6hPa Calm     90% 0.00in /  0mm
23:39 27.5 °F /  -2.5 °C 25.0 °F /  -3.9 °C 30.17in /  1021.6hPa Calm     90% 0.00in /  0mm
23:44 27.6 °F /  -2.4 °C 25.1 °F /  -3.8 °C 30.17in /  1021.6hPa Calm     90% 0.00in /  0mm
23:49 27.7 °F /  -2.4 °C 25.2 °F /  -3.8 °C 30.18in /  1021.9hPa Calm     90% 0.00in /  0mm
23:54 27.7 °F /  -2.4 °C 25.2 °F /  -3.8 °C 30.18in /  1021.9hPa Calm     90% 0.00in /  0mm
23:59 27.9 °F /  -2.3 °C 25.3 °F /  -3.7 °C 30.18in /  1021.9hPa Calm     90% 0.00in /  0mm
Buffalo, New York, USA
Compliments of Weather Underground - 2.5 mb